Time;durP1;ratioP1;P1;durP2;ratioP2;P2;SDS_P1;SDS_P2;PMS_P1;PMS_P2;Temp;Humidity;BMP_temperature;BMP_pressure;BME280_temperature;BME280_humidity;BME280_pressure;Samples;Min_cycle;Max_cycle;Signal;HPM_P1;HPM_P2
2020/12/10 00:00:59;;;;;;;12.43;6.97;;;;;10.10;100640.00;;;;5094822;28;20243;-76
2020/12/10 00:03:26;;;;;;;13.95;7.30;;;;;10.10;100633.00;;;;5104526;28;20198;-75
2020/12/10 00:05:54;;;;;;;10.00;5.95;;;;;10.10;100627.00;;;;5110882;28;20198;-76
2020/12/10 00:08:21;;;;;;;10.27;6.07;;;;;10.10;100626.00;;;;5110391;28;20236;-76
2020/12/10 00:10:49;;;;;;;11.35;7.10;;;;;10.10;100621.00;;;;5103158;28;20651;-76
2020/12/10 00:13:16;;;;;;;10.77;6.78;;;;;10.10;100627.00;;;;5091581;28;20198;-75
2020/12/10 00:15:43;;;;;;;11.73;6.30;;;;;10.10;100616.00;;;;5101758;28;20186;-76
2020/12/10 00:18:10;;;;;;;12.60;6.55;;;;;10.10;100610.00;;;;5092332;28;20206;-76
2020/12/10 00:20:37;;;;;;;10.13;6.55;;;;;10.10;100608.00;;;;5091077;28;20198;-75
2020/12/10 00:23:04;;;;;;;12.00;6.55;;;;;10.10;100611.00;;;;5101699;28;20243;-76
2020/12/10 00:25:31;;;;;;;9.35;6.05;;;;;10.10;100597.00;;;;5092595;28;20224;-76
2020/12/10 00:27:59;;;;;;;10.18;5.75;;;;;10.10;100593.00;;;;5096417;28;20186;-75
2020/12/10 00:30:26;;;;;;;10.05;5.75;;;;;10.10;100587.00;;;;5100920;28;20249;-76
2020/12/10 00:32:53;;;;;;;11.23;6.38;;;;;10.00;100580.00;;;;5090066;28;20637;-75
2020/12/10 00:35:20;;;;;;;10.68;6.18;;;;;10.10;100577.00;;;;5095314;28;20211;-75
2020/12/10 00:37:46;;;;;;;10.65;5.53;;;;;10.10;100582.00;;;;5110272;28;20266;-75
2020/12/10 00:40:13;;;;;;;8.75;5.22;;;;;10.00;100576.00;;;;5102657;28;20539;-76
2020/12/10 00:42:40;;;;;;;9.32;5.72;;;;;10.10;100573.00;;;;5091334;28;20202;-76
2020/12/10 00:45:07;;;;;;;10.68;5.20;;;;;10.00;100574.00;;;;5094956;28;20285;-75
2020/12/10 00:47:34;;;;;;;11.15;6.13;;;;;10.00;100576.00;;;;5100451;28;20182;-75
2020/12/10 00:50:02;;;;;;;10.30;5.25;;;;;10.00;100560.00;;;;5099412;28;20229;-75
2020/12/10 00:52:29;;;;;;;8.13;5.25;;;;;10.00;100560.00;;;;5102641;28;20207;-76
2020/12/10 00:54:56;;;;;;;9.00;4.53;;;;;10.00;100561.00;;;;5105868;28;20221;-76
2020/12/10 00:57:22;;;;;;;10.13;5.82;;;;;10.00;100565.00;;;;5089085;28;20194;-75
2020/12/10 00:59:49;;;;;;;9.93;5.25;;;;;10.00;100563.00;;;;5101407;28;20196;-76
2020/12/10 01:02:17;;;;;;;9.93;5.80;;;;;10.00;100565.00;;;;5107978;28;20964;-75
2020/12/10 01:04:43;;;;;;;10.18;5.43;;;;;10.00;100562.00;;;;5096102;28;20876;-75
2020/12/10 01:07:10;;;;;;;9.65;5.18;;;;;10.00;100571.00;;;;5091550;28;20193;-75
2020/12/10 01:09:37;;;;;;;7.95;5.75;;;;;10.00;100563.00;;;;5084898;28;20308;-76
2020/12/10 01:12:04;;;;;;;8.75;5.22;;;;;10.00;100554.00;;;;5095658;28;20194;-75
2020/12/10 01:14:32;;;;;;;9.05;5.40;;;;;10.00;100552.00;;;;5099784;28;20194;-76
2020/12/10 01:16:59;;;;;;;8.65;5.38;;;;;10.00;100552.00;;;;5106833;28;20614;-76
2020/12/10 01:19:26;;;;;;;9.45;5.50;;;;;10.00;100563.00;;;;5099827;28;20209;-75
2020/12/10 01:21:53;;;;;;;8.98;4.68;;;;;10.00;100555.00;;;;5109208;28;20193;-76
2020/12/10 01:24:20;;;;;;;7.60;4.78;;;;;10.00;100554.00;;;;5099553;28;20217;-76
2020/12/10 01:26:46;;;;;;;9.00;4.55;;;;;9.90;100557.00;;;;5089103;28;20198;-76
2020/12/10 01:29:13;;;;;;;8.52;4.78;;;;;9.90;100553.00;;;;5093614;28;20194;-76
2020/12/10 01:31:40;;;;;;;8.75;4.57;;;;;9.80;100558.00;;;;5088685;28;20194;-76
2020/12/10 01:34:07;;;;;;;8.30;4.80;;;;;9.80;100564.00;;;;5108674;28;20611;-75
2020/12/10 01:36:34;;;;;;;8.45;5.20;;;;;9.70;100558.00;;;;5107046;28;20190;-76
2020/12/10 01:39:01;;;;;;;8.60;4.32;;;;;9.70;100566.00;;;;5108726;28;20291;-76
2020/12/10 01:41:29;;;;;;;10.65;6.03;;;;;9.60;100563.00;;;;5090588;28;20201;-75
2020/12/10 01:44:04;;;;;;;9.30;5.30;;;;;9.50;100564.00;;;;5088986;28;20213;-75
2020/12/10 01:46:31;;;;;;;9.35;5.10;;;;;9.50;100562.00;;;;5089733;28;20194;-75
2020/12/10 01:48:57;;;;;;;9.00;5.25;;;;;9.50;100559.00;;;;5089587;28;20202;-75
2020/12/10 01:51:24;;;;;;;7.47;4.90;;;;;9.40;100554.00;;;;5095071;28;20221;-76
2020/12/10 01:53:52;;;;;;;7.97;4.47;;;;;9.30;100556.00;;;;5099528;28;20275;-76
2020/12/10 01:56:19;;;;;;;10.13;5.05;;;;;9.30;100558.00;;;;5088060;28;20198;-75
2020/12/10 01:58:46;;;;;;;11.73;5.00;;;;;9.20;100555.00;;;;5094635;28;20248;-75
2020/12/10 02:01:13;;;;;;;8.95;5.38;;;;;9.20;100551.00;;;;5104055;28;20573;-76
2020/12/10 02:03:40;;;;;;;9.13;5.22;;;;;9.10;100553.00;;;;5102298;28;20230;-76
2020/12/10 02:06:07;;;;;;;8.48;4.55;;;;;9.10;100539.00;;;;5103015;28;20202;-75
2020/12/10 02:08:34;;;;;;;7.78;4.03;;;;;9.00;100541.00;;;;5106382;28;20204;-76
2020/12/10 02:11:01;;;;;;;7.97;4.78;;;;;9.00;100527.00;;;;5106935;28;20229;-75
2020/12/10 02:13:28;;;;;;;10.13;5.43;;;;;8.90;100526.00;;;;5091633;28;20203;-75
2020/12/10 02:15:55;;;;;;;9.07;4.93;;;;;8.90;100528.00;;;;5089046;28;20664;-76
2020/12/10 02:18:22;;;;;;;8.63;4.78;;;;;8.80;100527.00;;;;5098780;28;20248;-76
2020/12/10 02:20:48;;;;;;;9.18;5.03;;;;;8.70;100536.00;;;;5084653;28;20198;-76
2020/12/10 02:23:16;;;;;;;10.63;5.30;;;;;8.70;100538.00;;;;5101767;28;20198;-76
2020/12/10 02:25:42;;;;;;;9.68;5.40;;;;;8.60;100540.00;;;;5094828;28;20198;-75
2020/12/10 02:28:12;;;;;;;10.23;5.50;;;;;8.50;100526.00;;;;5091652;28;20209;-75
2020/12/10 02:30:39;;;;;;;7.60;4.63;;;;;8.50;100531.00;;;;5088971;28;20221;-76
2020/12/10 02:33:07;;;;;;;8.43;4.78;;;;;8.40;100537.00;;;;5096706;28;20212;-75
2020/12/10 02:35:35;;;;;;;8.98;5.13;;;;;8.40;100538.00;;;;5087628;28;20224;-75
2020/12/10 02:38:03;;;;;;;9.38;5.22;;;;;8.30;100532.00;;;;5088146;28;20202;-75
2020/12/10 02:40:34;;;;;;;9.73;5.88;;;;;8.30;100534.00;;;;5105888;28;20213;-75
2020/12/10 02:43:00;;;;;;;8.63;5.57;;;;;8.30;100530.00;;;;5097108;28;20202;-75
2020/12/10 02:45:27;;;;;;;9.23;6.18;;;;;8.20;100539.00;;;;5096384;28;20705;-75
2020/12/10 02:47:55;;;;;;;8.82;5.10;;;;;8.20;100530.00;;;;5092870;28;20205;-75
2020/12/10 02:50:22;;;;;;;12.02;5.80;;;;;8.10;100530.00;;;;5098898;28;20221;-76
2020/12/10 02:52:49;;;;;;;9.93;5.43;;;;;8.10;100532.00;;;;5106626;28;20212;-76
2020/12/10 02:55:16;;;;;;;9.85;5.88;;;;;8.00;100532.00;;;;5106312;28;20209;-75
2020/12/10 02:57:44;;;;;;;8.95;5.25;;;;;7.90;100529.00;;;;5103542;28;20222;-75
2020/12/10 03:00:11;;;;;;;10.20;6.15;;;;;7.90;100522.00;;;;5089585;28;20191;-75
2020/12/10 03:02:38;;;;;;;11.52;6.05;;;;;7.90;100526.00;;;;5097994;28;20231;-75
2020/12/10 03:05:05;;;;;;;9.88;5.72;;;;;7.90;100533.00;;;;5098832;28;20675;-75
2020/12/10 03:07:32;;;;;;;9.52;5.60;;;;;7.80;100526.00;;;;5091377;28;20209;-75
2020/12/10 03:09:59;;;;;;;9.95;6.00;;;;;7.80;100526.00;;;;5093387;28;20718;-75
2020/12/10 03:12:26;;;;;;;9.90;5.65;;;;;7.80;100522.00;;;;5093024;28;20189;-75
2020/12/10 03:14:53;;;;;;;12.27;5.75;;;;;7.70;100521.00;;;;5084759;28;20581;-75
2020/12/10 03:17:20;;;;;;;9.35;5.28;;;;;7.70;100512.00;;;;5098637;28;20941;-75
2020/12/10 03:19:47;;;;;;;10.13;5.75;;;;;7.70;100510.00;;;;5083415;28;20257;-76
2020/12/10 03:22:14;;;;;;;11.13;5.53;;;;;7.60;100508.00;;;;5070377;28;20689;-75
2020/12/10 03:24:42;;;;;;;10.07;5.50;;;;;7.60;100507.00;;;;5092331;28;20202;-75
2020/12/10 03:27:08;;;;;;;12.27;6.57;;;;;7.60;100508.00;;;;5091556;28;20489;-75
2020/12/10 03:29:35;;;;;;;10.10;6.07;;;;;7.50;100506.00;;;;5093005;28;20190;-75
2020/12/10 03:32:04;;;;;;;12.38;6.10;;;;;7.50;100502.00;;;;5070741;28;20214;-75
2020/12/10 03:34:31;;;;;;;12.25;7.43;;;;;7.50;100502.00;;;;5078381;28;20194;-75
2020/12/10 03:36:59;;;;;;;11.45;6.50;;;;;7.40;100499.00;;;;5111094;28;20194;-75
2020/12/10 03:39:28;;;;;;;10.85;6.15;;;;;7.40;100497.00;;;;5109714;28;20566;-75
2020/12/10 03:41:56;;;;;;;10.05;5.45;;;;;7.40;100493.00;;;;5092485;28;20210;-75
2020/12/10 03:44:23;;;;;;;9.15;5.82;;;;;7.40;100489.00;;;;5101384;28;20224;-75
2020/12/10 03:46:49;;;;;;;10.73;6.32;;;;;7.40;100490.00;;;;5091866;28;20198;-76
2020/12/10 03:49:17;;;;;;;10.88;5.85;;;;;7.30;100486.00;;;;5093775;28;20194;-75
2020/12/10 03:51:44;;;;;;;9.57;5.20;;;;;7.30;100484.00;;;;5090606;28;20464;-75
2020/12/10 03:54:11;;;;;;;10.57;6.32;;;;;7.30;100488.00;;;;5095068;28;20206;-75
2020/12/10 03:56:38;;;;;;;10.02;5.75;;;;;7.30;100481.00;;;;5090235;28;20664;-75
2020/12/10 03:59:05;;;;;;;12.48;6.50;;;;;7.30;100485.00;;;;5091023;28;20230;-76
2020/12/10 04:01:32;;;;;;;12.00;6.28;;;;;7.30;100482.00;;;;5090431;28;20194;-75
2020/12/10 04:03:59;;;;;;;10.93;5.90;;;;;7.30;100479.00;;;;5092649;28;20202;-75
2020/12/10 04:06:27;;;;;;;9.95;5.95;;;;;7.30;100476.00;;;;5103653;28;20198;-75
2020/12/10 04:08:54;;;;;;;12.65;5.78;;;;;7.20;100476.00;;;;5108355;28;20254;-75
2020/12/10 04:11:21;;;;;;;12.00;6.00;;;;;7.20;100478.00;;;;5090818;28;20648;-75
2020/12/10 04:13:48;;;;;;;11.80;6.03;;;;;7.20;100475.00;;;;5101497;28;20569;-75
2020/12/10 04:16:14;;;;;;;11.48;5.85;;;;;7.20;100476.00;;;;5089947;28;20198;-75
2020/12/10 04:18:42;;;;;;;9.48;5.30;;;;;7.10;100474.00;;;;5096957;28;20190;-76
2020/12/10 04:21:10;;;;;;;10.48;5.97;;;;;7.10;100473.00;;;;5103352;28;20202;-75
2020/12/10 04:23:38;;;;;;;10.55;5.57;;;;;7.10;100472.00;;;;5089814;28;20194;-75
2020/12/10 04:26:05;;;;;;;9.30;5.13;;;;;7.10;100473.00;;;;5100119;28;20195;-75
2020/12/10 04:28:32;;;;;;;9.55;5.50;;;;;7.10;100472.00;;;;5096216;28;20656;-76
2020/12/10 04:30:58;;;;;;;11.40;5.72;;;;;7.10;100473.00;;;;5090837;28;20233;-76
2020/12/10 04:33:25;;;;;;;12.20;6.13;;;;;7.10;100471.00;;;;5110420;28;20197;-75
2020/12/10 04:35:52;;;;;;;10.07;5.32;;;;;7.10;100470.00;;;;5091282;28;20194;-76
2020/12/10 04:38:19;;;;;;;12.80;5.68;;;;;7.10;100464.00;;;;5103123;28;20193;-75
2020/12/10 04:40:46;;;;;;;10.73;5.82;;;;;7.00;100468.00;;;;5109889;28;20220;-76
2020/12/10 04:43:14;;;;;;;10.77;5.78;;;;;7.00;100467.00;;;;5097882;28;20206;-75
2020/12/10 04:45:41;;;;;;;9.48;5.40;;;;;7.00;100467.00;;;;5096692;28;20198;-75
2020/12/10 04:48:08;;;;;;;9.80;5.65;;;;;7.00;100465.00;;;;5095676;28;20517;-74
2020/12/10 04:50:38;;;;;;;8.80;5.28;;;;;7.00;100464.00;;;;5097417;28;20229;-75
2020/12/10 04:53:05;;;;;;;10.73;5.20;;;;;7.00;100461.00;;;;5096193;28;20213;-75
2020/12/10 04:55:32;;;;;;;11.13;6.60;;;;;6.90;100461.00;;;;5110189;28;20295;-75
2020/12/10 04:58:01;;;;;;;12.35;6.45;;;;;6.90;100460.00;;;;5096835;28;20583;-76
2020/12/10 05:00:28;;;;;;;10.13;5.45;;;;;6.90;100470.00;;;;5098136;28;20884;-75
2020/12/10 05:02:55;;;;;;;10.75;6.03;;;;;6.90;100472.00;;;;5098520;28;20194;-75
2020/12/10 05:05:30;;;;;;;10.85;6.50;;;;;6.90;100475.00;;;;5102649;28;20984;-76
2020/12/10 05:07:58;;;;;;;10.50;6.38;;;;;6.90;100470.00;;;;5079878;28;20198;-76
2020/12/10 05:10:26;;;;;;;10.95;6.13;;;;;6.90;100471.00;;;;5089178;28;20226;-75
2020/12/10 05:13:07;;;;;;;10.63;6.07;;;;;6.90;100469.00;;;;5103727;28;20221;-76
2020/12/10 05:15:35;;;;;;;9.18;5.57;;;;;6.90;100467.00;;;;5086611;28;20274;-76
2020/12/10 05:18:06;;;;;;;12.13;6.00;;;;;6.90;100466.00;;;;5109288;28;20197;-75
2020/12/10 05:20:41;;;;;;;9.63;5.90;;;;;6.90;100461.00;;;;5102114;28;20198;-75
2020/12/10 05:23:08;;;;;;;8.52;5.30;;;;;7.00;100467.00;;;;5095732;28;20201;-76
2020/12/10 05:25:53;;;;;;;12.32;5.75;;;;;6.90;100463.00;;;;5090164;28;20198;-75
2020/12/10 05:28:22;;;;;;;10.48;6.38;;;;;7.00;100462.00;;;;5096164;28;20769;-75
2020/12/10 05:31:01;;;;;;;8.85;4.90;;;;;6.90;100468.00;;;;5089244;28;20229;-75
2020/12/10 05:33:28;;;;;;;11.00;6.18;;;;;7.00;100461.00;;;;5102194;28;20677;-75
2020/12/10 05:36:05;;;;;;;10.85;6.40;;;;;7.00;100461.00;;;;5107543;28;20196;-75
2020/12/10 05:38:31;;;;;;;10.95;6.20;;;;;7.10;100471.00;;;;5106339;28;20197;-75
2020/12/10 05:41:19;;;;;;;10.00;5.57;;;;;7.00;100474.00;;;;5101302;28;20315;-75
2020/12/10 05:43:47;;;;;;;10.63;5.93;;;;;7.10;100474.00;;;;5107044;28;20230;-75
2020/12/10 05:46:17;;;;;;;14.88;7.30;;;;;7.10;100476.00;;;;5095770;28;20212;-75
2020/12/10 05:48:49;;;;;;;10.80;6.20;;;;;7.10;100492.00;;;;5090169;28;20206;-76
2020/12/10 05:51:18;;;;;;;10.95;5.35;;;;;7.10;100483.00;;;;5092625;28;20225;-75
2020/12/10 05:53:45;;;;;;;11.00;5.82;;;;;7.10;100488.00;;;;5088766;28;20206;-74
2020/12/10 05:56:16;;;;;;;9.98;6.28;;;;;7.20;100488.00;;;;5075976;28;20206;-75
2020/12/10 05:58:52;;;;;;;9.88;5.97;;;;;7.10;100488.00;;;;5102045;28;20217;-76
2020/12/10 06:01:27;;;;;;;12.32;5.55;;;;;7.10;100493.00;;;;5087030;28;20606;-76
2020/12/10 06:03:54;;;;;;;9.73;5.22;;;;;7.20;100496.00;;;;5084791;28;20255;-76
2020/12/10 06:06:21;;;;;;;9.27;5.55;;;;;7.20;100489.00;;;;5086487;28;20734;-76
2020/12/10 06:08:50;;;;;;;9.80;5.72;;;;;7.30;100499.00;;;;5081827;28;20201;-76
2020/12/10 06:11:20;;;;;;;10.93;5.47;;;;;7.20;100488.00;;;;5087049;28;20280;-76
2020/12/10 06:13:48;;;;;;;11.02;5.03;;;;;7.30;100498.00;;;;5093223;28;20212;-76
2020/12/10 06:16:16;;;;;;;8.10;4.63;;;;;7.30;100501.00;;;;5089175;28;20664;-76
2020/12/10 06:19:03;;;;;;;10.35;5.45;;;;;7.20;100505.00;;;;5099900;28;20308;-76
2020/12/10 06:21:39;;;;;;;8.23;4.88;;;;;7.20;100511.00;;;;5095494;28;20300;-76
2020/12/10 06:24:31;;;;;;;8.93;4.90;;;;;7.20;100506.00;;;;5087246;28;20198;-77
2020/12/10 06:26:59;;;;;;;9.95;5.40;;;;;7.30;100509.00;;;;5087259;28;20221;-76
2020/12/10 06:29:27;;;;;;;9.32;5.53;;;;;7.30;100520.00;;;;5087541;28;20208;-77
2020/12/10 06:32:09;;;;;;;9.25;5.50;;;;;7.20;100522.00;;;;5087847;28;20249;-76
2020/12/10 06:34:42;;;;;;;8.95;4.82;;;;;7.30;100525.00;;;;5087421;28;20208;-76
2020/12/10 06:37:14;;;;;;;8.20;5.00;;;;;7.30;100524.00;;;;5092222;28;20186;-76
2020/12/10 06:39:41;;;;;;;8.25;5.25;;;;;7.30;100526.00;;;;5068197;28;20209;-76
2020/12/10 06:42:07;;;;;;;9.10;5.20;;;;;7.30;100520.00;;;;5093630;28;20186;-76
2020/12/10 06:44:36;;;;;;;8.38;4.65;;;;;7.30;100513.00;;;;5087291;28;20206;-75
2020/12/10 06:47:03;;;;;;;10.43;5.68;;;;;7.30;100513.00;;;;5097950;28;20202;-76
2020/12/10 06:49:31;;;;;;;11.02;5.68;;;;;7.30;100520.00;;;;5097388;28;20202;-76
2020/12/10 06:52:08;;;;;;;13.70;6.07;;;;;7.30;100523.00;;;;5088297;28;20271;-76
2020/12/10 06:54:35;;;;;;;9.40;5.30;;;;;7.30;100513.00;;;;5105337;28;20220;-76
2020/12/10 06:57:05;;;;;;;12.05;5.60;;;;;7.30;100515.00;;;;5091818;28;20206;-76
2020/12/10 06:59:40;;;;;;;7.53;4.50;;;;;7.30;100519.00;;;;5087376;28;20295;-76
2020/12/10 07:02:15;;;;;;;11.50;5.90;;;;;7.30;100512.00;;;;5092056;28;20203;-78
2020/12/10 07:04:48;;;;;;;10.60;5.28;;;;;7.30;100506.00;;;;5094566;28;20194;-76
2020/12/10 07:07:17;;;;;;;11.00;5.38;;;;;7.30;100509.00;;;;5101832;28;20587;-79
2020/12/10 07:09:53;;;;;;;9.98;5.10;;;;;7.30;100513.00;;;;5089686;28;20610;-76
2020/12/10 07:12:24;;;;;;;7.82;5.05;;;;;7.30;100523.00;;;;5087447;28;20204;-76
2020/12/10 07:14:52;;;;;;;8.95;5.18;;;;;7.30;100517.00;;;;5087782;28;20194;-76
2020/12/10 07:17:19;;;;;;;9.07;5.65;;;;;7.30;100523.00;;;;5087612;28;20194;-76
2020/12/10 07:19:46;;;;;;;10.20;5.85;;;;;7.30;100523.00;;;;5087721;28;20656;-76
2020/12/10 07:22:13;;;;;;;10.27;6.38;;;;;7.30;100522.00;;;;5087256;28;20209;-76
2020/12/10 07:24:40;;;;;;;11.70;5.50;;;;;7.30;100520.00;;;;5087367;28;20573;-75
2020/12/10 07:27:07;;;;;;;12.05;5.55;;;;;7.30;100517.00;;;;5088843;28;20198;-77
2020/12/10 07:29:33;;;;;;;10.10;5.05;;;;;7.30;100527.00;;;;5092817;28;20198;-76
2020/12/10 07:32:01;;;;;;;10.93;5.22;;;;;7.30;100527.00;;;;5104371;28;20225;-76
2020/12/10 07:34:29;;;;;;;11.10;5.40;;;;;7.30;100519.00;;;;5095107;28;20197;-76
2020/12/10 07:36:56;;;;;;;9.15;5.25;;;;;7.30;100521.00;;;;5104958;28;20716;-76
2020/12/10 07:39:30;;;;;;;10.48;5.30;;;;;7.20;100528.00;;;;5087068;28;20199;-76
2020/12/10 07:41:57;;;;;;;8.10;4.93;;;;;7.20;100528.00;;;;5088094;28;20208;-76
2020/12/10 07:44:28;;;;;;;8.80;5.28;;;;;7.20;100525.00;;;;5090999;28;20210;-75
2020/12/10 07:46:55;;;;;;;9.85;5.03;;;;;7.20;100526.00;;;;5080506;28;20230;-76
2020/12/10 07:49:27;;;;;;;9.57;5.25;;;;;7.20;100533.00;;;;5090574;28;20202;-76
2020/12/10 07:52:02;;;;;;;10.82;5.80;;;;;7.10;100524.00;;;;5090137;28;20224;-76
2020/12/10 07:54:41;;;;;;;8.95;5.03;;;;;7.20;100527.00;;;;5095775;28;20564;-76
2020/12/10 07:57:21;;;;;;;9.65;5.28;;;;;7.20;100518.00;;;;5090519;28;20194;-77
2020/12/10 07:59:52;;;;;;;9.95;5.40;;;;;7.20;100529.00;;;;5094675;28;20190;-77
2020/12/10 08:02:28;;;;;;;10.20;6.18;;;;;7.10;100524.00;;;;5088181;28;20303;-76
2020/12/10 08:04:56;;;;;;;11.43;5.18;;;;;7.20;100520.00;;;;5085935;28;20197;-76
2020/12/10 08:07:22;;;;;;;11.65;6.28;;;;;7.20;100524.00;;;;5090354;28;20202;-76
2020/12/10 08:09:50;;;;;;;10.20;5.88;;;;;7.20;100527.00;;;;5086625;28;20202;-76
2020/12/10 08:12:16;;;;;;;8.80;5.43;;;;;7.20;100527.00;;;;5086430;28;20307;-78
2020/12/10 08:14:51;;;;;;;11.60;6.47;;;;;7.20;100530.00;;;;5089678;28;20656;-77
2020/12/10 08:17:20;;;;;;;8.63;5.07;;;;;7.20;100524.00;;;;5075812;28;20198;-76
2020/12/10 08:19:56;;;;;;;11.00;5.93;;;;;7.20;100527.00;;;;5083835;28;20238;-76
2020/12/10 08:22:23;;;;;;;11.52;5.93;;;;;7.20;100527.00;;;;5081234;28;20205;-76
2020/12/10 08:24:50;;;;;;;11.15;6.35;;;;;7.20;100523.00;;;;5076980;28;20197;-78
2020/12/10 08:27:19;;;;;;;10.80;6.00;;;;;7.20;100528.00;;;;5077285;28;20195;-76
2020/12/10 08:29:59;;;;;;;10.05;5.70;;;;;7.20;100526.00;;;;5089147;28;20234;-77
2020/12/10 08:32:26;;;;;;;13.70;6.40;;;;;7.30;100525.00;;;;5092017;28;20225;-76
2020/12/10 08:35:05;;;;;;;9.82;5.97;;;;;7.20;100528.00;;;;5085887;28;20202;-76
2020/12/10 08:37:38;;;;;;;10.25;6.30;;;;;7.30;100528.00;;;;5082333;28;20197;-76
2020/12/10 08:40:05;;;;;;;9.10;5.45;;;;;7.30;100534.00;;;;5094382;28;20234;-76
2020/12/10 08:42:31;;;;;;;11.15;6.68;;;;;7.30;100527.00;;;;5085965;28;20202;-76
2020/12/10 08:44:58;;;;;;;11.43;6.53;;;;;7.30;100523.00;;;;5086615;28;20214;-76
2020/12/10 08:47:26;;;;;;;11.65;6.50;;;;;7.30;100530.00;;;;5086215;28;20190;-76
2020/12/10 08:50:23;;;;;;;12.07;6.60;;;;;7.30;100522.00;;;;5089163;28;20220;-77
2020/12/10 08:52:51;;;;;;;11.18;6.10;;;;;7.40;100528.00;;;;5071622;28;20202;-76
2020/12/10 08:55:17;;;;;;;12.60;6.78;;;;;7.40;100532.00;;;;5079089;28;20787;-77
2020/12/10 08:57:48;;;;;;;15.75;6.90;;;;;7.40;100537.00;;;;5085858;28;20465;-77
2020/12/10 09:00:15;;;;;;;13.05;6.75;;;;;7.50;100546.00;;;;5087908;28;21253;-77
2020/12/10 09:02:42;;;;;;;11.60;6.82;;;;;7.50;100538.00;;;;5085839;28;20193;-76
2020/12/10 09:05:09;;;;;;;11.48;6.53;;;;;7.50;100547.00;;;;5088526;28;20206;-76
2020/12/10 09:07:36;;;;;;;11.90;6.40;;;;;7.60;100552.00;;;;5080537;28;20202;-76
2020/12/10 09:10:05;;;;;;;12.40;6.60;;;;;7.60;100541.00;;;;5074013;28;20206;-77
2020/12/10 09:12:32;;;;;;;10.98;6.13;;;;;7.60;100545.00;;;;5083731;28;20611;-76
2020/12/10 09:14:59;;;;;;;12.70;6.80;;;;;7.60;100538.00;;;;5085508;28;20197;-77
2020/12/10 09:17:28;;;;;;;11.23;6.40;;;;;7.60;100537.00;;;;5078384;28;20625;-76
2020/12/10 09:19:54;;;;;;;13.05;6.93;;;;;7.70;100546.00;;;;5080129;28;20793;-77
2020/12/10 09:22:22;;;;;;;13.13;7.10;;;;;7.70;100554.00;;;;5069994;28;20280;-76
2020/12/10 09:24:49;;;;;;;11.02;5.72;;;;;7.70;100553.00;;;;5080626;28;20187;-76
2020/12/10 09:27:18;;;;;;;10.23;6.35;;;;;7.80;100540.00;;;;5086030;28;20657;-77
2020/12/10 09:29:45;;;;;;;12.10;6.95;;;;;7.80;100541.00;;;;5090048;28;20202;-76
2020/12/10 09:32:12;;;;;;;12.25;6.88;;;;;7.80;100536.00;;;;5083830;28;20229;-77
2020/12/10 09:34:39;;;;;;;13.98;7.53;;;;;7.80;100538.00;;;;5087607;28;20205;-76
2020/12/10 09:37:05;;;;;;;11.73;7.13;;;;;7.80;100538.00;;;;5089208;28;20202;-76
2020/12/10 09:39:35;;;;;;;11.88;6.40;;;;;7.80;100528.00;;;;5082769;28;20232;-77
2020/12/10 09:42:02;;;;;;;11.95;7.30;;;;;7.90;100543.00;;;;5083257;28;20664;-77
2020/12/10 09:44:29;;;;;;;13.15;6.78;;;;;7.90;100538.00;;;;5088817;28;20194;-77
2020/12/10 09:46:56;;;;;;;12.27;6.82;;;;;7.90;100541.00;;;;5090097;28;20661;-78
2020/12/10 09:49:23;;;;;;;12.85;6.88;;;;;8.00;100536.00;;;;5097113;28;20205;-77
2020/12/10 09:51:52;;;;;;;11.23;6.40;;;;;8.00;100536.00;;;;5092396;28;20222;-77
2020/12/10 09:54:27;;;;;;;14.05;7.32;;;;;8.00;100543.00;;;;5096215;28;20263;-77
2020/12/10 09:57:07;;;;;;;12.85;7.65;;;;;8.10;100539.00;;;;5088085;28;20570;-77
2020/12/10 09:59:37;;;;;;;12.20;6.93;;;;;8.10;100541.00;;;;5082720;28;20233;-77
2020/12/10 10:02:04;;;;;;;10.82;7.18;;;;;8.10;100534.00;;;;5097311;28;20231;-77
2020/12/10 10:04:31;;;;;;;13.60;7.07;;;;;8.20;100535.00;;;;5088599;28;20511;-77
2020/12/10 10:06:58;;;;;;;12.32;7.38;;;;;8.20;100530.00;;;;5091719;28;20204;-76
2020/12/10 10:09:26;;;;;;;13.48;6.43;;;;;8.20;100534.00;;;;5090885;28;20198;-77
2020/12/10 10:11:54;;;;;;;12.10;6.93;;;;;8.30;100538.00;;;;5089703;28;20228;-77
2020/12/10 10:14:21;;;;;;;13.50;7.72;;;;;8.30;100545.00;;;;5082129;28;20281;-77
2020/12/10 10:16:47;;;;;;;12.05;7.28;;;;;8.30;100538.00;;;;5084218;28;20197;-78
2020/12/10 10:19:14;;;;;;;11.15;6.82;;;;;8.40;100545.00;;;;5075645;28;20455;-78
2020/12/10 10:21:41;;;;;;;13.73;7.40;;;;;8.40;100541.00;;;;5091422;28;20202;-77
2020/12/10 10:24:09;;;;;;;12.43;7.03;;;;;8.40;100528.00;;;;5085553;28;20210;-77
2020/12/10 10:26:35;;;;;;;14.60;7.40;;;;;8.40;100535.00;;;;5096048;28;20281;-77
2020/12/10 10:29:07;;;;;;;12.02;7.38;;;;;8.40;100524.00;;;;5089537;28;20198;-77
2020/12/10 10:31:34;;;;;;;11.88;6.45;;;;;8.50;100514.00;;;;5088620;28;20225;-77
2020/12/10 10:34:00;;;;;;;12.07;7.15;;;;;8.50;100518.00;;;;5096898;28;20201;-77
2020/12/10 10:36:27;;;;;;;15.30;8.38;;;;;8.60;100516.00;;;;5089303;28;20288;-78
2020/12/10 10:38:54;;;;;;;13.57;7.65;;;;;8.60;100518.00;;;;5087829;28;20213;-77
2020/12/10 10:41:20;;;;;;;12.80;7.38;;;;;8.60;100523.00;;;;5088214;28;20205;-77
2020/12/10 10:43:47;;;;;;;13.73;7.22;;;;;8.70;100521.00;;;;5102231;28;20197;-77
2020/12/10 10:46:19;;;;;;;12.93;7.18;;;;;8.70;100525.00;;;;5094451;28;20198;-77
2020/12/10 10:48:45;;;;;;;12.25;7.03;;;;;8.70;100520.00;;;;5105095;28;20204;-77
2020/12/10 10:51:12;;;;;;;13.15;7.30;;;;;8.70;100528.00;;;;5097223;28;20240;-77
2020/12/10 10:53:40;;;;;;;10.90;6.15;;;;;8.80;100524.00;;;;5090502;28;20221;-77
2020/12/10 10:56:07;;;;;;;13.10;7.20;;;;;8.80;100521.00;;;;5088302;28;20197;-77
2020/12/10 10:58:34;;;;;;;12.30;7.25;;;;;8.80;100515.00;;;;5090595;28;20225;-78
2020/12/10 11:01:00;;;;;;;11.57;7.47;;;;;8.90;100514.00;;;;5092130;28;20593;-77
2020/12/10 11:03:28;;;;;;;12.88;7.18;;;;;8.90;100512.00;;;;5095465;28;20202;-77
2020/12/10 11:05:55;;;;;;;11.18;6.85;;;;;8.90;100507.00;;;;5091273;28;20202;-77
2020/12/10 11:08:22;;;;;;;13.30;7.55;;;;;9.00;100510.00;;;;5089206;28;20194;-77
2020/12/10 11:10:48;;;;;;;15.63;7.35;;;;;9.00;100504.00;;;;5099226;28;20233;-78
2020/12/10 11:13:15;;;;;;;13.90;8.07;;;;;9.00;100504.00;;;;5089625;28;20206;-77
2020/12/10 11:15:42;;;;;;;15.13;7.57;;;;;9.10;100507.00;;;;5101766;28;20205;-77
2020/12/10 11:18:08;;;;;;;14.82;7.80;;;;;9.10;100509.00;;;;5091705;28;20667;-77
2020/12/10 11:20:36;;;;;;;13.75;7.30;;;;;9.10;100511.00;;;;5083296;28;20194;-77
2020/12/10 11:23:03;;;;;;;14.52;7.90;;;;;9.20;100502.00;;;;5092731;28;20217;-78
2020/12/10 11:25:29;;;;;;;12.25;6.88;;;;;9.20;100513.00;;;;5089241;28;20209;-77
2020/12/10 11:27:56;;;;;;;12.80;7.25;;;;;9.30;100501.00;;;;5087426;28;20270;-78
2020/12/10 11:30:23;;;;;;;12.98;7.45;;;;;9.30;100505.00;;;;5076647;28;20273;-78
2020/12/10 11:32:49;;;;;;;13.80;7.68;;;;;9.30;100495.00;;;;5101868;28;20213;-78
2020/12/10 11:35:16;;;;;;;12.60;7.68;;;;;9.40;100502.00;;;;5099780;28;20239;-78
2020/12/10 11:37:44;;;;;;;13.10;7.38;;;;;9.40;100506.00;;;;5082127;28;20190;-78
2020/12/10 11:40:10;;;;;;;13.15;6.85;;;;;9.40;100499.00;;;;5074238;28;20198;-77
2020/12/10 11:42:37;;;;;;;13.48;7.78;;;;;9.50;100493.00;;;;5089033;28;20202;-78
2020/12/10 11:45:04;;;;;;;13.85;8.55;;;;;9.50;100487.00;;;;5086717;28;20807;-77
2020/12/10 11:47:31;;;;;;;13.73;8.25;;;;;9.60;100490.00;;;;5077851;28;20195;-78
2020/12/10 11:49:58;;;;;;;13.15;7.22;;;;;9.60;100487.00;;;;5082470;28;20202;-77
2020/12/10 11:52:24;;;;;;;14.27;8.02;;;;;9.60;100487.00;;;;5081740;28;20219;-77
2020/12/10 11:54:52;;;;;;;14.70;8.45;;;;;9.60;100481.00;;;;5082607;28;20215;-77
2020/12/10 11:57:19;;;;;;;13.00;7.78;;;;;9.70;100476.00;;;;5071524;28;20207;-77
2020/12/10 11:59:45;;;;;;;13.25;7.65;;;;;9.70;100462.00;;;;5071638;28;20199;-77
2020/12/10 12:02:12;;;;;;;13.18;7.07;;;;;9.70;100472.00;;;;5078545;28;20198;-78
2020/12/10 12:04:39;;;;;;;14.40;7.53;;;;;9.70;100462.00;;;;5086834;28;20256;-77
2020/12/10 12:07:05;;;;;;;12.70;7.22;;;;;9.70;100466.00;;;;5084084;28;20221;-77
2020/12/10 12:09:32;;;;;;;13.32;7.47;;;;;9.70;100466.00;;;;5077519;28;20191;-77
2020/12/10 12:12:02;;;;;;;13.05;6.88;;;;;9.70;100459.00;;;;5074585;28;20223;-77
2020/12/10 12:14:29;;;;;;;13.57;6.88;;;;;9.70;100460.00;;;;5085466;28;20202;-77
2020/12/10 12:16:55;;;;;;;14.63;7.53;;;;;9.80;100459.00;;;;5088098;28;20558;-77